createdAt,value
2023-02-03T00:00:00.360Z,101850
2023-02-03T00:01:00.362Z,101850
2023-02-03T00:02:00.445Z,101851
2023-02-03T00:03:00.437Z,101851
2023-02-03T00:04:00.388Z,101851
2023-02-03T00:05:00.439Z,101851
2023-02-03T00:06:00.968Z,101851
2023-02-03T00:07:00.383Z,101844
2023-02-03T00:08:01.610Z,101844
2023-02-03T00:09:00.800Z,101844
2023-02-03T00:10:00.898Z,101844
2023-02-03T00:11:00.545Z,101844
2023-02-03T00:12:00.391Z,101834
2023-02-03T00:13:00.548Z,101834
2023-02-03T00:14:00.371Z,101834
2023-02-03T00:15:00.438Z,101834
2023-02-03T00:16:00.396Z,101834
2023-02-03T00:17:00.363Z,101830
2023-02-03T00:18:00.368Z,101830
2023-02-03T00:19:00.392Z,101830
2023-02-03T00:20:00.360Z,101830
2023-02-03T00:21:00.349Z,101830
2023-02-03T00:22:00.379Z,101821
2023-02-03T00:23:02.438Z,101821
2023-02-03T00:24:00.375Z,101821
2023-02-03T00:25:00.408Z,101821
2023-02-03T00:26:08.962Z,101821
2023-02-03T00:27:00.379Z,101826
2023-02-03T00:28:00.797Z,101826
2023-02-03T00:29:00.372Z,101826
2023-02-03T00:30:00.385Z,101826
2023-02-03T00:31:00.409Z,101826
2023-02-03T00:32:00.474Z,101834
2023-02-03T00:33:00.707Z,101834
2023-02-03T00:34:00.350Z,101834
2023-02-03T00:35:00.365Z,101834
2023-02-03T00:36:05.381Z,101834
2023-02-03T00:37:00.681Z,101832
2023-02-03T00:38:00.357Z,101832
2023-02-03T00:39:00.413Z,101832
2023-02-03T00:40:00.389Z,101832
2023-02-03T00:41:00.452Z,101832
2023-02-03T00:42:00.349Z,101836
2023-02-03T00:43:01.220Z,101836
2023-02-03T00:44:00.358Z,101836
2023-02-03T00:45:00.544Z,101836
2023-02-03T00:46:00.455Z,101836
2023-02-03T00:47:00.520Z,101825
2023-02-03T00:48:00.392Z,101825
2023-02-03T00:49:00.556Z,101825
2023-02-03T00:50:00.396Z,101825
2023-02-03T00:51:00.358Z,101825
2023-02-03T00:52:00.455Z,101810
2023-02-03T00:53:00.358Z,101810
2023-02-03T00:54:00.420Z,101810
2023-02-03T00:55:00.414Z,101810
2023-02-03T00:56:00.391Z,101810
2023-02-03T00:57:00.356Z,101818
2023-02-03T00:58:00.398Z,101818
2023-02-03T00:59:00.423Z,101818
2023-02-03T01:00:00.521Z,101818
2023-02-03T01:01:00.362Z,101818
2023-02-03T01:02:00.441Z,101823
2023-02-03T01:03:00.378Z,101823
2023-02-03T01:04:00.446Z,101823
2023-02-03T01:05:00.344Z,101823
2023-02-03T01:06:10.270Z,101818
2023-02-03T01:07:00.371Z,101818
2023-02-03T01:08:00.483Z,101818
2023-02-03T01:09:00.903Z,101818
2023-02-03T01:10:00.385Z,101818
2023-02-03T01:11:04.912Z,101818
2023-02-03T01:12:00.357Z,101819
2023-02-03T01:13:00.352Z,101819
2023-02-03T01:14:00.359Z,101819
2023-02-03T01:15:00.371Z,101819
2023-02-03T01:16:00.369Z,101819
2023-02-03T01:17:00.377Z,101824
2023-02-03T01:18:00.408Z,101824
2023-02-03T01:19:00.522Z,101824
2023-02-03T01:20:00.406Z,101824
2023-02-03T01:21:04.225Z,101824
2023-02-03T01:22:00.345Z,101820
2023-02-03T01:23:00.364Z,101820
2023-02-03T01:24:00.730Z,101820
2023-02-03T01:25:00.375Z,101820
2023-02-03T01:26:02.366Z,101820
2023-02-03T01:27:00.356Z,101812
2023-02-03T01:28:00.406Z,101812
2023-02-03T01:29:00.902Z,101812
2023-02-03T01:30:00.353Z,101812
2023-02-03T01:31:09.384Z,101809
2023-02-03T01:32:00.474Z,101809
2023-02-03T01:33:00.410Z,101809
2023-02-03T01:34:00.587Z,101809
2023-02-03T01:35:00.367Z,101809
2023-02-03T01:36:00.631Z,101809
2023-02-03T01:37:00.363Z,101798
2023-02-03T01:38:00.382Z,101798
2023-02-03T01:39:00.417Z,101798
2023-02-03T01:40:00.384Z,101798
2023-02-03T01:41:00.437Z,101798
2023-02-03T01:42:00.358Z,101799
2023-02-03T01:43:00.368Z,101799
2023-02-03T01:44:01.548Z,101799
2023-02-03T01:45:00.413Z,101799
2023-02-03T01:46:03.705Z,101799
2023-02-03T01:47:01.989Z,101791
2023-02-03T01:48:00.520Z,101791
2023-02-03T01:49:10.269Z,101791
2023-02-03T01:50:01.377Z,101791
2023-02-03T01:51:01.460Z,101791
2023-02-03T01:52:00.648Z,101789
2023-02-03T01:53:02.648Z,101789
2023-02-03T01:54:00.500Z,101789
2023-02-03T01:55:02.207Z,101789
2023-02-03T01:56:00.635Z,101789
2023-02-03T01:57:02.118Z,101803
2023-02-03T01:58:04.775Z,101803
2023-02-03T01:59:00.385Z,101803
2023-02-03T02:00:01.584Z,101803
2023-02-03T02:01:00.422Z,101803
2023-02-03T02:02:00.834Z,101808
2023-02-03T02:03:01.602Z,101808
2023-02-03T02:04:01.765Z,101808
2023-02-03T02:05:10.268Z,101808
2023-02-03T02:06:02.827Z,101808
2023-02-03T02:07:00.360Z,101821
2023-02-03T02:08:01.619Z,101821
2023-02-03T02:09:00.981Z,101821
2023-02-03T02:10:00.478Z,101821
2023-02-03T02:11:00.534Z,101821
2023-02-03T02:12:00.384Z,101803
2023-02-03T02:13:01.912Z,101803
2023-02-03T02:14:01.401Z,101803
2023-02-03T02:15:00.660Z,101803
2023-02-03T02:16:01.521Z,101803
2023-02-03T02:17:06.422Z,101802
2023-02-03T02:18:07.717Z,101802
2023-02-03T02:19:00.346Z,101802
2023-02-03T02:20:10.278Z,101802
2023-02-03T02:21:10.296Z,101815
2023-02-03T02:22:01.353Z,101815
2023-02-03T02:23:10.274Z,101815
2023-02-03T02:24:10.269Z,101815
2023-02-03T02:25:10.274Z,101815
2023-02-03T02:26:03.605Z,101815
2023-02-03T02:27:05.495Z,101821
2023-02-03T02:28:03.630Z,101821
2023-02-03T02:29:01.355Z,101821
2023-02-03T02:30:10.270Z,101821
2023-02-03T02:31:10.467Z,101814
2023-02-03T02:32:05.750Z,101814
2023-02-03T02:33:01.728Z,101814
2023-02-03T02:34:07.169Z,101814
2023-02-03T02:35:10.283Z,101814
2023-02-03T02:36:00.341Z,101814
2023-02-03T02:37:10.282Z,101816
2023-02-03T02:38:02.687Z,101816
2023-02-03T02:39:08.863Z,101816
2023-02-03T02:40:10.256Z,101816
2023-02-03T02:41:04.925Z,101816
2023-02-03T02:42:06.795Z,101818
2023-02-03T02:43:07.765Z,101818
2023-02-03T02:44:02.569Z,101818
2023-02-03T02:45:06.943Z,101818
2023-02-03T02:46:10.331Z,101815
2023-02-03T02:47:05.021Z,101815
2023-02-03T02:48:04.330Z,101815
2023-02-03T02:49:10.258Z,101815
2023-02-03T02:50:01.358Z,101815
2023-02-03T02:51:02.168Z,101815
2023-02-03T02:52:03.258Z,101812
2023-02-03T02:53:01.195Z,101812
2023-02-03T02:54:02.853Z,101812
2023-02-03T02:55:04.379Z,101812
2023-02-03T02:56:03.257Z,101812
2023-02-03T02:57:02.380Z,101812
2023-02-03T02:58:03.399Z,101812
2023-02-03T02:59:02.111Z,101812
2023-02-03T03:00:00.504Z,101812
2023-02-03T03:01:00.974Z,101812
2023-02-03T03:02:00.406Z,101819
2023-02-03T03:03:10.284Z,101819
2023-02-03T03:04:02.212Z,101819
2023-02-03T03:05:01.456Z,101819
2023-02-03T03:06:02.803Z,101819
2023-02-03T03:07:03.500Z,101814
2023-02-03T03:08:01.027Z,101814
2023-02-03T03:09:04.758Z,101814
2023-02-03T03:10:02.766Z,101814
2023-02-03T03:11:00.657Z,101814
2023-02-03T03:12:06.007Z,101816
2023-02-03T03:13:03.316Z,101816
2023-02-03T03:14:03.579Z,101816
2023-02-03T03:15:04.442Z,101816
2023-02-03T03:16:02.757Z,101816
2023-02-03T03:17:03.918Z,101826
2023-02-03T03:18:05.102Z,101826
2023-02-03T03:19:03.547Z,101826
2023-02-03T03:20:04.112Z,101826
2023-02-03T03:21:02.531Z,101826
2023-02-03T03:22:02.800Z,101850
2023-02-03T03:23:04.775Z,101850
2023-02-03T03:24:02.883Z,101850
2023-02-03T03:25:04.184Z,101850
2023-02-03T03:26:06.411Z,101850
2023-02-03T03:27:10.281Z,101852
2023-02-03T03:28:02.048Z,101852
2023-02-03T03:29:10.268Z,101852
2023-02-03T03:30:04.991Z,101852
2023-02-03T03:31:00.500Z,101852
2023-02-03T03:32:01.255Z,101855
2023-02-03T03:33:01.076Z,101855
2023-02-03T03:34:00.384Z,101855
2023-02-03T03:35:01.923Z,101855
2023-02-03T03:36:04.201Z,101855
2023-02-03T03:37:06.324Z,101863
2023-02-03T03:38:06.070Z,101863
2023-02-03T03:39:05.259Z,101863
2023-02-03T03:40:06.810Z,101863
2023-02-03T03:41:04.825Z,101863
2023-02-03T03:42:00.389Z,101856
2023-02-03T03:43:05.861Z,101856
2023-02-03T03:44:02.727Z,101856
2023-02-03T03:45:04.490Z,101856
2023-02-03T03:46:05.451Z,101856
2023-02-03T03:47:06.652Z,101853
2023-02-03T03:48:06.011Z,101853
2023-02-03T03:49:02.937Z,101853
2023-02-03T03:50:01.925Z,101853
2023-02-03T03:51:03.206Z,101853
2023-02-03T03:52:01.823Z,101841
2023-02-03T03:53:01.585Z,101841
2023-02-03T03:54:03.734Z,101841
2023-02-03T03:55:02.078Z,101841
2023-02-03T03:56:02.438Z,101841
2023-02-03T03:57:05.617Z,101834
2023-02-03T03:58:10.266Z,101834
2023-02-03T03:59:02.853Z,101834
2023-02-03T04:00:01.584Z,101834
2023-02-03T04:01:02.755Z,101834
2023-02-03T04:02:01.648Z,101841
2023-02-03T04:03:03.913Z,101841
2023-02-03T04:04:02.285Z,101841
2023-02-03T04:05:01.600Z,101841
2023-02-03T04:06:00.917Z,101841
2023-02-03T04:07:00.355Z,101837
2023-02-03T04:08:00.383Z,101837
2023-02-03T04:09:00.371Z,101837
2023-02-03T04:10:00.587Z,101837
2023-02-03T04:11:00.366Z,101837
2023-02-03T04:12:00.349Z,101857
2023-02-03T04:13:00.671Z,101857
2023-02-03T04:14:00.357Z,101857
2023-02-03T04:15:00.349Z,101857
2023-02-03T04:16:00.440Z,101857
2023-02-03T04:17:00.517Z,101865
2023-02-03T04:18:00.440Z,101865
2023-02-03T04:19:00.351Z,101865
2023-02-03T04:20:00.507Z,101865
2023-02-03T04:21:00.346Z,101865
2023-02-03T04:22:00.358Z,101871
2023-02-03T04:23:00.413Z,101871
2023-02-03T04:24:00.506Z,101871
2023-02-03T04:25:00.423Z,101871
2023-02-03T04:26:00.393Z,101871
2023-02-03T04:27:00.410Z,101877
2023-02-03T04:28:00.455Z,101877
2023-02-03T04:29:00.386Z,101877
2023-02-03T04:30:00.667Z,101877
2023-02-03T04:31:00.411Z,101877
2023-02-03T04:32:00.474Z,101888
2023-02-03T04:33:00.366Z,101888
2023-02-03T04:34:00.463Z,101888
2023-02-03T04:35:01.062Z,101888
2023-02-03T04:36:00.365Z,101888
2023-02-03T04:37:00.357Z,101887
2023-02-03T04:38:00.400Z,101887
2023-02-03T04:39:00.410Z,101887
2023-02-03T04:40:00.799Z,101887
2023-02-03T04:41:00.367Z,101887
2023-02-03T04:42:00.426Z,101876
2023-02-03T04:43:04.770Z,101876
2023-02-03T04:44:00.361Z,101876
2023-02-03T04:45:00.354Z,101876
2023-02-03T04:46:00.487Z,101876
2023-02-03T04:47:00.349Z,101880
2023-02-03T04:48:00.348Z,101880
2023-02-03T04:49:00.360Z,101880
2023-02-03T04:50:00.469Z,101880
2023-02-03T04:51:01.266Z,101880
2023-02-03T04:52:00.357Z,101879
2023-02-03T04:53:00.420Z,101879
2023-02-03T04:54:00.373Z,101879
2023-02-03T04:55:00.364Z,101879
2023-02-03T04:56:01.696Z,101879
2023-02-03T04:57:00.692Z,101881
2023-02-03T04:58:00.558Z,101881
2023-02-03T04:59:00.374Z,101881
2023-02-03T05:00:00.400Z,101881
2023-02-03T05:01:05.299Z,101881
2023-02-03T05:02:01.830Z,101895
2023-02-03T05:03:00.424Z,101895
2023-02-03T05:04:00.468Z,101895
2023-02-03T05:05:00.359Z,101895
2023-02-03T05:06:00.386Z,101895
2023-02-03T05:07:00.659Z,101888
2023-02-03T05:08:00.386Z,101888
2023-02-03T05:09:00.896Z,101888
2023-02-03T05:10:00.361Z,101888
2023-02-03T05:11:02.087Z,101888
2023-02-03T05:12:00.356Z,101892
2023-02-03T05:13:00.371Z,101892
2023-02-03T05:14:00.361Z,101892
2023-02-03T05:15:00.364Z,101892
2023-02-03T05:16:00.351Z,101892
2023-02-03T05:17:00.349Z,101882
2023-02-03T05:18:00.349Z,101882
2023-02-03T05:19:00.453Z,101882
2023-02-03T05:20:00.379Z,101882
2023-02-03T05:21:00.358Z,101882
2023-02-03T05:22:00.377Z,101876
2023-02-03T05:23:00.342Z,101876
2023-02-03T05:24:00.405Z,101876
2023-02-03T05:25:00.900Z,101876
2023-02-03T05:26:00.410Z,101876
2023-02-03T05:27:00.364Z,101887
2023-02-03T05:28:00.427Z,101887
2023-02-03T05:29:00.450Z,101887
2023-02-03T05:30:00.399Z,101887
2023-02-03T05:31:00.835Z,101887
2023-02-03T05:32:00.470Z,101894
2023-02-03T05:33:00.378Z,101894
2023-02-03T05:34:00.371Z,101894
2023-02-03T05:35:00.391Z,101894
2023-02-03T05:36:00.593Z,101894
2023-02-03T05:37:00.378Z,101904
2023-02-03T05:38:00.371Z,101904
2023-02-03T05:39:00.364Z,101904
2023-02-03T05:40:00.366Z,101904
2023-02-03T05:41:00.355Z,101904
2023-02-03T05:42:00.359Z,101904
2023-02-03T05:43:00.376Z,101904
2023-02-03T05:44:00.346Z,101904
2023-02-03T05:45:00.348Z,101904
2023-02-03T05:46:01.034Z,101904
2023-02-03T05:47:00.358Z,101905
2023-02-03T05:48:00.407Z,101905
2023-02-03T05:49:00.370Z,101905
2023-02-03T05:50:00.343Z,101905
2023-02-03T05:51:00.405Z,101905
2023-02-03T05:52:00.384Z,101902
2023-02-03T05:53:00.929Z,101902
2023-02-03T05:54:00.359Z,101902
2023-02-03T05:55:00.357Z,101902
2023-02-03T05:56:00.372Z,101902
2023-02-03T05:57:00.362Z,101905
2023-02-03T05:58:00.378Z,101905
2023-02-03T05:59:00.434Z,101905
2023-02-03T06:00:00.404Z,101905
2023-02-03T06:01:00.392Z,101905
2023-02-03T06:02:00.358Z,101902
2023-02-03T06:03:01.106Z,101902
2023-02-03T06:04:00.887Z,101902
2023-02-03T06:05:00.362Z,101902
2023-02-03T06:06:00.363Z,101902
2023-02-03T06:07:00.386Z,101906
2023-02-03T06:08:00.601Z,101906
2023-02-03T06:09:00.978Z,101906
2023-02-03T06:10:00.415Z,101906
2023-02-03T06:11:00.457Z,101906
2023-02-03T06:12:00.406Z,101912
2023-02-03T06:13:07.190Z,101912
2023-02-03T06:14:00.472Z,101912
2023-02-03T06:15:00.348Z,101912
2023-02-03T06:16:00.355Z,101912
2023-02-03T06:17:00.401Z,101921
2023-02-03T06:18:00.364Z,101921
2023-02-03T06:19:00.416Z,101921
2023-02-03T06:20:01.019Z,101921
2023-02-03T06:21:00.426Z,101921
2023-02-03T06:22:00.344Z,101940
2023-02-03T06:23:00.394Z,101940
2023-02-03T06:24:00.371Z,101940
2023-02-03T06:25:00.362Z,101940
2023-02-03T06:26:00.360Z,101940
2023-02-03T06:27:00.355Z,101931
2023-02-03T06:28:00.436Z,101931
2023-02-03T06:29:00.342Z,101931
2023-02-03T06:30:00.364Z,101931
2023-02-03T06:31:00.409Z,101931
2023-02-03T06:32:00.649Z,101925
2023-02-03T06:33:00.359Z,101925
2023-02-03T06:34:00.346Z,101925
2023-02-03T06:35:00.354Z,101925
2023-02-03T06:36:00.436Z,101925
2023-02-03T06:37:00.676Z,101922
2023-02-03T06:38:00.366Z,101922
2023-02-03T06:39:00.345Z,101922
2023-02-03T06:40:00.843Z,101922
2023-02-03T06:41:00.449Z,101922
2023-02-03T06:42:00.931Z,101932
2023-02-03T06:43:00.447Z,101932
2023-02-03T06:44:00.351Z,101932
2023-02-03T06:45:00.543Z,101932
2023-02-03T06:46:00.415Z,101932
2023-02-03T06:47:00.361Z,101936
2023-02-03T06:48:00.358Z,101936
2023-02-03T06:49:00.418Z,101936
2023-02-03T06:50:00.371Z,101936
2023-02-03T06:51:00.412Z,101936
2023-02-03T06:52:00.345Z,101937
2023-02-03T06:53:00.350Z,101937
2023-02-03T06:54:01.253Z,101937
2023-02-03T06:55:00.355Z,101937
2023-02-03T06:56:00.367Z,101937
2023-02-03T06:57:00.357Z,101940
2023-02-03T06:58:00.664Z,101940
2023-02-03T06:59:00.437Z,101940
2023-02-03T07:00:00.406Z,101940
2023-02-03T07:01:00.345Z,101940
2023-02-03T07:02:00.399Z,101944
2023-02-03T07:03:00.424Z,101944
2023-02-03T07:04:00.368Z,101944
2023-02-03T07:05:00.611Z,101944
2023-02-03T07:06:00.393Z,101944
2023-02-03T07:07:00.358Z,101947
2023-02-03T07:08:00.402Z,101947
2023-02-03T07:09:01.956Z,101947
2023-02-03T07:10:00.766Z,101947
2023-02-03T07:11:00.348Z,101947
2023-02-03T07:12:00.351Z,101947
2023-02-03T07:13:02.329Z,101947
2023-02-03T07:14:00.427Z,101947
2023-02-03T07:15:00.417Z,101947
2023-02-03T07:16:00.508Z,101947
2023-02-03T07:17:02.108Z,101947
2023-02-03T07:18:00.337Z,101947
2023-02-03T07:19:00.382Z,101947
2023-02-03T07:20:00.364Z,101947
2023-02-03T07:21:03.344Z,101947
2023-02-03T07:22:00.366Z,101947
2023-02-03T07:23:00.367Z,101947
2023-02-03T07:24:00.382Z,101947
2023-02-03T07:25:00.382Z,101947
2023-02-03T07:26:01.319Z,101947
2023-02-03T07:27:02.303Z,101948
2023-02-03T07:28:00.622Z,101948
2023-02-03T07:29:00.364Z,101948
2023-02-03T07:30:00.413Z,101948
2023-02-03T07:31:00.920Z,101948
2023-02-03T07:32:00.422Z,101951
2023-02-03T07:33:00.457Z,101951
2023-02-03T07:34:00.479Z,101951
2023-02-03T07:35:00.358Z,101951
2023-02-03T07:36:00.371Z,101951
2023-02-03T07:37:00.510Z,101950
2023-02-03T07:38:00.377Z,101950
2023-02-03T07:39:00.426Z,101950
2023-02-03T07:40:00.349Z,101950
2023-02-03T07:41:00.342Z,101950
2023-02-03T07:42:00.374Z,101949
2023-02-03T07:43:00.355Z,101949
2023-02-03T07:44:00.397Z,101949
2023-02-03T07:45:00.352Z,101949
2023-02-03T07:46:00.356Z,101949
2023-02-03T07:47:00.351Z,101948
2023-02-03T07:48:00.432Z,101948
2023-02-03T07:49:00.394Z,101948
2023-02-03T07:50:00.361Z,101948
2023-02-03T07:51:00.363Z,101948
2023-02-03T07:52:00.377Z,101946
2023-02-03T07:53:00.713Z,101946
2023-02-03T07:54:00.359Z,101946
2023-02-03T07:55:00.353Z,101946
2023-02-03T07:56:01.937Z,101946
2023-02-03T07:57:00.368Z,101945
2023-02-03T07:58:03.227Z,101945
2023-02-03T07:59:00.408Z,101945
2023-02-03T08:01:00.395Z,101945
2023-02-03T08:02:00.551Z,101953
2023-02-03T08:03:00.463Z,101953
2023-02-03T08:04:00.355Z,101953
2023-02-03T08:05:00.526Z,101953
2023-02-03T08:06:00.364Z,101953
2023-02-03T08:07:00.382Z,101953
2023-02-03T08:08:00.431Z,101953
2023-02-03T08:09:00.366Z,101953
2023-02-03T08:10:00.609Z,101953
2023-02-03T08:11:00.491Z,101953
2023-02-03T08:12:00.405Z,101955
2023-02-03T08:13:00.373Z,101955
2023-02-03T08:14:00.342Z,101955
2023-02-03T08:15:00.383Z,101955
2023-02-03T08:16:00.403Z,101955
2023-02-03T08:17:00.370Z,101964
2023-02-03T08:18:00.391Z,101964
2023-02-03T08:19:00.368Z,101964
2023-02-03T08:20:00.475Z,101964
2023-02-03T08:21:00.406Z,101964
2023-02-03T08:22:00.355Z,101972
2023-02-03T08:23:00.364Z,101972
2023-02-03T08:24:00.366Z,101972
2023-02-03T08:25:00.367Z,101972
2023-02-03T08:26:00.380Z,101972
2023-02-03T08:27:00.393Z,101977
2023-02-03T08:28:00.409Z,101977
2023-02-03T08:29:00.520Z,101977
2023-02-03T08:30:00.391Z,101977
2023-02-03T08:31:00.459Z,101977
2023-02-03T08:32:00.443Z,101978
2023-02-03T08:33:00.372Z,101978
2023-02-03T08:34:00.373Z,101978
2023-02-03T08:35:00.423Z,101978
2023-02-03T08:36:00.416Z,101978
2023-02-03T08:37:00.394Z,101987
2023-02-03T08:38:00.391Z,101987
2023-02-03T08:39:00.365Z,101987
2023-02-03T08:40:00.429Z,101987
2023-02-03T08:41:00.377Z,101987
2023-02-03T08:42:00.512Z,101979
2023-02-03T08:43:00.383Z,101979
2023-02-03T08:44:00.374Z,101979
2023-02-03T08:45:00.435Z,101979
2023-02-03T08:46:02.233Z,101979
2023-02-03T08:47:00.619Z,101983
2023-02-03T08:48:00.345Z,101983
2023-02-03T08:49:00.346Z,101983
2023-02-03T08:50:00.341Z,101983
2023-02-03T08:51:00.497Z,101983
2023-02-03T08:52:00.787Z,102007
2023-02-03T08:53:00.422Z,102007
2023-02-03T08:54:00.367Z,102007
2023-02-03T08:55:00.358Z,102007
2023-02-03T08:56:03.266Z,102007
2023-02-03T08:57:00.383Z,102027
2023-02-03T08:58:00.404Z,102027
2023-02-03T08:59:00.429Z,102027
2023-02-03T09:00:00.479Z,102027
2023-02-03T09:01:10.304Z,102042
2023-02-03T09:02:01.325Z,102042
2023-02-03T09:03:00.348Z,102042
2023-02-03T09:04:00.398Z,102042
2023-02-03T09:05:00.549Z,102042
2023-02-03T09:06:00.391Z,102042
2023-02-03T09:07:00.539Z,102047
2023-02-03T09:08:00.370Z,102047
2023-02-03T09:09:00.412Z,102047
2023-02-03T09:10:00.556Z,102047
2023-02-03T09:11:00.363Z,102047
2023-02-03T09:12:00.352Z,102060
2023-02-03T09:13:00.360Z,102060
2023-02-03T09:14:00.377Z,102060
2023-02-03T09:15:00.482Z,102060
2023-02-03T09:16:00.389Z,102060
2023-02-03T09:17:01.699Z,102063
2023-02-03T09:18:00.383Z,102063
2023-02-03T09:19:00.354Z,102063
2023-02-03T09:20:00.480Z,102063
2023-02-03T09:21:01.612Z,102063
2023-02-03T09:22:00.538Z,102085
2023-02-03T09:23:00.398Z,102085
2023-02-03T09:24:01.084Z,102085
2023-02-03T09:25:00.357Z,102085
2023-02-03T09:26:01.044Z,102085
2023-02-03T09:27:00.380Z,102101
2023-02-03T09:28:00.928Z,102101
2023-02-03T09:29:00.405Z,102101
2023-02-03T09:30:00.348Z,102101
2023-02-03T09:31:00.738Z,102101
2023-02-03T09:32:00.423Z,102108
2023-02-03T09:33:00.376Z,102108
2023-02-03T09:34:00.382Z,102108
2023-02-03T09:35:00.363Z,102108
2023-02-03T09:36:00.447Z,102108
2023-02-03T09:37:00.567Z,102111
2023-02-03T09:38:00.376Z,102111
2023-02-03T09:39:00.456Z,102111
2023-02-03T09:40:00.373Z,102111
2023-02-03T09:41:11.905Z,102126
2023-02-03T09:42:01.527Z,102126
2023-02-03T09:43:01.345Z,102126
2023-02-03T09:44:01.354Z,102126
2023-02-03T09:45:00.327Z,102126
2023-02-03T09:46:02.730Z,102126
2023-02-03T09:47:03.374Z,102135
2023-02-03T09:48:05.038Z,102135
2023-02-03T09:49:07.942Z,102135
2023-02-03T09:50:01.808Z,102135
2023-02-03T09:51:00.727Z,102135
2023-02-03T09:52:02.928Z,102152
2023-02-03T09:53:04.495Z,102152
2023-02-03T09:54:04.017Z,102152
2023-02-03T09:55:00.363Z,102152
2023-02-03T09:56:00.469Z,102152
2023-02-03T09:57:03.312Z,102159
2023-02-03T09:58:00.328Z,102159
2023-02-03T09:59:00.792Z,102159
2023-02-03T10:00:01.724Z,102159
2023-02-03T10:01:01.539Z,102159
2023-02-03T10:02:00.338Z,102167
2023-02-03T10:03:10.255Z,102167
2023-02-03T10:04:04.654Z,102167
2023-02-03T10:05:05.164Z,102167
2023-02-03T10:06:10.277Z,102167
2023-02-03T10:07:06.039Z,102171
2023-02-03T10:08:10.247Z,102171
2023-02-03T10:09:07.412Z,102171
2023-02-03T10:10:10.261Z,102171
2023-02-03T10:11:00.318Z,102171
2023-02-03T10:12:10.255Z,102174
2023-02-03T10:13:10.253Z,102174
2023-02-03T10:14:07.897Z,102174
2023-02-03T10:15:05.998Z,102174
2023-02-03T10:16:10.252Z,102174
2023-02-03T10:17:00.457Z,102186
2023-02-03T10:18:04.115Z,102186
2023-02-03T10:19:04.170Z,102186
2023-02-03T10:20:02.953Z,102186
2023-02-03T10:21:02.667Z,102186
2023-02-03T10:22:03.208Z,102192
2023-02-03T10:23:05.602Z,102192
2023-02-03T10:24:02.420Z,102192
2023-02-03T10:25:04.599Z,102192
2023-02-03T10:26:03.552Z,102192
2023-02-03T10:27:00.336Z,102201
2023-02-03T10:28:02.771Z,102201
2023-02-03T10:29:10.263Z,102201
2023-02-03T10:30:01.401Z,102201
2023-02-03T10:31:02.602Z,102201
2023-02-03T10:32:00.597Z,102199
2023-02-03T10:33:08.179Z,102199
2023-02-03T10:34:10.250Z,102199
2023-02-03T10:35:00.359Z,102199
2023-02-03T10:36:10.203Z,102199
2023-02-03T10:37:04.227Z,102199
2023-02-03T10:38:00.378Z,102199
2023-02-03T10:39:05.628Z,102199
2023-02-03T10:40:00.872Z,102199
2023-02-03T10:41:01.037Z,102199
2023-02-03T10:42:01.360Z,102191
2023-02-03T10:43:00.362Z,102191
2023-02-03T10:44:03.208Z,102191
2023-02-03T10:45:00.553Z,102191
2023-02-03T10:46:00.573Z,102191
2023-02-03T10:47:00.332Z,102196
2023-02-03T10:48:01.562Z,102196
2023-02-03T10:49:00.359Z,102196
2023-02-03T10:50:03.934Z,102196
2023-02-03T10:51:01.111Z,102196
2023-02-03T10:52:00.597Z,102202
2023-02-03T10:53:10.287Z,102202
2023-02-03T10:54:00.337Z,102202
2023-02-03T10:55:12.650Z,102202
2023-02-03T10:56:06.180Z,102202
2023-02-03T10:57:04.916Z,102215
2023-02-03T10:58:05.786Z,102215
2023-02-03T10:59:00.765Z,102215
2023-02-03T11:00:05.911Z,102215
2023-02-03T11:01:10.316Z,102215
2023-02-03T11:02:05.842Z,102230
2023-02-03T11:03:04.529Z,102230
2023-02-03T11:04:01.813Z,102230
2023-02-03T11:05:10.272Z,102230
2023-02-03T11:06:03.721Z,102230
2023-02-03T11:07:02.244Z,102228
2023-02-03T11:08:00.332Z,102228
2023-02-03T11:09:00.337Z,102228
2023-02-03T11:10:00.394Z,102228
2023-02-03T11:11:01.125Z,102228
2023-02-03T11:12:10.256Z,102219
2023-02-03T11:13:10.246Z,102219
2023-02-03T11:14:01.337Z,102219
2023-02-03T11:15:03.912Z,102219
2023-02-03T11:16:02.111Z,102219
2023-02-03T11:17:06.120Z,102220
2023-02-03T11:18:00.397Z,102220
2023-02-03T11:19:01.986Z,102220
2023-02-03T11:20:03.329Z,102220
2023-02-03T11:21:05.145Z,102220
2023-02-03T11:22:00.436Z,102238
2023-02-03T11:23:02.051Z,102238
2023-02-03T11:24:10.273Z,102238
2023-02-03T11:25:01.369Z,102238
2023-02-03T11:26:08.773Z,102238
2023-02-03T11:27:05.630Z,102242
2023-02-03T11:28:04.767Z,102242
2023-02-03T11:29:01.649Z,102242
2023-02-03T11:30:07.791Z,102242
2023-02-03T11:31:00.620Z,102242
2023-02-03T11:32:02.326Z,102248
2023-02-03T11:33:01.338Z,102248
2023-02-03T11:34:02.381Z,102248
2023-02-03T11:35:02.287Z,102248
2023-02-03T11:36:01.496Z,102248
2023-02-03T11:37:10.265Z,102252
2023-02-03T11:38:00.749Z,102252
2023-02-03T11:39:09.156Z,102252
2023-02-03T11:40:07.822Z,102252
2023-02-03T11:41:00.365Z,102252
2023-02-03T11:42:00.812Z,102246
2023-02-03T11:43:01.991Z,102246
2023-02-03T11:44:09.149Z,102246
2023-02-03T11:45:10.261Z,102246
2023-02-03T11:46:02.523Z,102246
2023-02-03T11:47:02.863Z,102249
2023-02-03T11:48:00.393Z,102249
2023-02-03T11:49:10.269Z,102249
2023-02-03T11:50:10.281Z,102249
2023-02-03T11:51:10.257Z,102249
2023-02-03T11:52:01.367Z,102242
2023-02-03T11:53:10.279Z,102242
2023-02-03T11:54:00.336Z,102242
2023-02-03T11:55:00.380Z,102242
2023-02-03T11:56:10.264Z,102242
2023-02-03T11:57:00.422Z,102259
2023-02-03T11:58:10.271Z,102259
2023-02-03T11:59:01.401Z,102259
2023-02-03T12:00:07.221Z,102259
2023-02-03T12:01:10.274Z,102259
2023-02-03T12:02:00.349Z,102263
2023-02-03T12:03:10.347Z,102263
2023-02-03T12:04:10.484Z,102263
2023-02-03T12:05:08.600Z,102263
2023-02-03T12:06:00.358Z,102263
2023-02-03T12:07:00.374Z,102257
2023-02-03T12:08:07.897Z,102257
2023-02-03T12:09:07.633Z,102257
2023-02-03T12:10:01.380Z,102257
2023-02-03T12:11:07.379Z,102257
2023-02-03T12:12:01.367Z,102244
2023-02-03T12:13:10.271Z,102244
2023-02-03T12:14:10.267Z,102244
2023-02-03T12:15:08.803Z,102244
2023-02-03T12:16:10.312Z,102244
2023-02-03T12:17:00.387Z,102238
2023-02-03T12:18:01.387Z,102238
2023-02-03T12:19:09.736Z,102238
2023-02-03T12:20:00.344Z,102238
2023-02-03T12:21:01.392Z,102238
2023-02-03T12:22:10.266Z,102238
2023-02-03T12:23:07.742Z,102238
2023-02-03T12:24:10.262Z,102238
2023-02-03T12:25:10.259Z,102238
2023-02-03T12:26:10.269Z,102238
2023-02-03T12:27:09.459Z,102253
2023-02-03T12:28:11.562Z,102253
2023-02-03T12:29:05.147Z,102253